www.cux-wetter.de
Wetterdaten: Montag, 11.08.2008
Datum Zeit Temp. A. Feuchte A. Luftdruck Regen Wind Richtung Richtung Sonnenschein Solar Taupunkt Windchill Windben
11.08.2008 00:01 18,5 C 74 % 1001,5 hPa 0,0 l/m 10,3 km/h (2 Bft) SW 225 0 min 0 W/m 13,8 C 16,9 C 10,3 km/h (2 Bft)
11.08.2008 00:05 18,4 C 74 % 1001,5 hPa 0,0 l/m 8,7 km/h (2 Bft) SW 220 0 min 0 W/m 13,7 C 17,4 C 8,7 km/h (2 Bft)
11.08.2008 00:11 18,1 C 73 % 1001,5 hPa 0,0 l/m 8,4 km/h (2 Bft) W-SW 240 0 min 0 W/m 13,2 C 17,2 C 8,4 km/h (2 Bft)
11.08.2008 00:16 18,0 C 74 % 1001,5 hPa 0,0 l/m 9,5 km/h (2 Bft) W-SW 240 0 min 0 W/m 13,3 C 16,6 C 9,5 km/h (2 Bft)
11.08.2008 00:21 18,0 C 75 % 1001,5 hPa 0,0 l/m 9,1 km/h (2 Bft) SW 215 0 min 0 W/m 13,5 C 16,8 C 9,1 km/h (2 Bft)
11.08.2008 00:26 18,0 C 74 % 1001,5 hPa 0,0 l/m 8,7 km/h (2 Bft) W 260 0 min 0 W/m 13,3 C 16,9 C 8,7 km/h (2 Bft)
11.08.2008 00:31 17,8 C 74 % 1001,5 hPa 0,0 l/m 10,0 km/h (2 Bft) W-SW 250 0 min 0 W/m 13,1 C 16,2 C 10,0 km/h (2 Bft)
11.08.2008 00:36 17,6 C 74 % 1001,5 hPa 0,0 l/m 18,7 km/h (3 Bft) W-SW 250 0 min 0 W/m 12,9 C 13,4 C 18,7 km/h (3 Bft)
11.08.2008 00:41 17,1 C 76 % 1001,5 hPa 0,0 l/m 19,5 km/h (3 Bft) W 260 0 min 0 W/m 12,8 C 12,6 C 19,5 km/h (3 Bft)
11.08.2008 00:46 17,0 C 76 % 1001,5 hPa 0,0 l/m 21,1 km/h (4 Bft) W 265 0 min 0 W/m 12,7 C 12,1 C 21,1 km/h (4 Bft)
11.08.2008 00:51 16,9 C 76 % 1001,5 hPa 0,0 l/m 19,6 km/h (3 Bft) W 260 0 min 0 W/m 12,6 C 12,3 C 19,6 km/h (3 Bft)
11.08.2008 00:56 16,9 C 76 % 1001,5 hPa 0,0 l/m 13,5 km/h (3 Bft) W-SW 255 0 min 0 W/m 12,6 C 14,0 C 13,5 km/h (3 Bft)
11.08.2008 01:01 16,8 C 76 % 1001,5 hPa 0,0 l/m 14,1 km/h (3 Bft) W 270 0 min 0 W/m 12,5 C 13,6 C 14,1 km/h (3 Bft)
11.08.2008 01:06 16,9 C 76 % 1001,5 hPa 0,0 l/m 13,8 km/h (3 Bft) W 270 0 min 0 W/m 12,6 C 13,9 C 13,8 km/h (3 Bft)
11.08.2008 01:11 16,8 C 76 % 1001,5 hPa 0,0 l/m 16,1 km/h (3 Bft) W-SW 255 0 min 0 W/m 12,5 C 13,1 C 16,1 km/h (3 Bft)
11.08.2008 01:15 16,8 C 76 % 1001,5 hPa 0,0 l/m 15,4 km/h (3 Bft) W 260 0 min 0 W/m 12,5 C 13,3 C 15,4 km/h (3 Bft)
11.08.2008 01:20 16,8 C 76 % 1001,5 hPa 0,0 l/m 17,3 km/h (3 Bft) W 260 0 min 0 W/m 12,5 C 12,7 C 17,3 km/h (3 Bft)
11.08.2008 01:25 16,8 C 76 % 1001,5 hPa 0,0 l/m 12,3 km/h (2 Bft) W-SW 255 0 min 0 W/m 12,5 C 14,2 C 12,3 km/h (2 Bft)
11.08.2008 01:31 16,8 C 76 % 1001,5 hPa 0,0 l/m 13,0 km/h (3 Bft) W 260 0 min 0 W/m 12,5 C 14,0 C 13,0 km/h (3 Bft)
11.08.2008 01:36 16,7 C 76 % 1001,5 hPa 0,0 l/m 17,0 km/h (3 Bft) W 270 0 min 0 W/m 12,4 C 12,7 C 17,0 km/h (3 Bft)
11.08.2008 01:41 16,6 C 76 % 1001,5 hPa 0,0 l/m 16,7 km/h (3 Bft) W 275 0 min 0 W/m 12,3 C 12,6 C 16,7 km/h (3 Bft)
11.08.2008 01:46 16,5 C 77 % 1001,5 hPa 0,0 l/m 21,0 km/h (4 Bft) W 270 0 min 0 W/m 12,5 C 11,5 C 21,0 km/h (4 Bft)
11.08.2008 01:51 16,5 C 77 % 1001,5 hPa 0,0 l/m 18,8 km/h (3 Bft) W 270 0 min 0 W/m 12,5 C 12,0 C 18,8 km/h (3 Bft)
11.08.2008 01:56 16,5 C 77 % 1001,5 hPa 0,0 l/m 17,8 km/h (3 Bft) W 265 0 min 0 W/m 12,5 C 12,2 C 17,8 km/h (3 Bft)
11.08.2008 02:01 16,4 C 78 % 1001,5 hPa 0,0 l/m 16,4 km/h (3 Bft) W 270 0 min 0 W/m 12,6 C 12,5 C 16,4 km/h (3 Bft)
11.08.2008 02:06 16,5 C 78 % 1001,5 hPa 0,0 l/m 17,2 km/h (3 Bft) W 265 0 min 0 W/m 12,6 C 12,4 C 17,2 km/h (3 Bft)
11.08.2008 02:11 16,5 C 78 % 1001,5 hPa 0,0 l/m 18,8 km/h (3 Bft) W 270 0 min 0 W/m 12,6 C 12,0 C 18,8 km/h (3 Bft)
11.08.2008 02:16 16,5 C 78 % 1001,5 hPa 0,0 l/m 15,5 km/h (3 Bft) W 270 0 min 0 W/m 12,6 C 12,9 C 15,5 km/h (3 Bft)
11.08.2008 02:21 16,4 C 78 % 1001,5 hPa 0,0 l/m 17,4 km/h (3 Bft) W 270 0 min 0 W/m 12,6 C 12,2 C 17,4 km/h (3 Bft)
11.08.2008 02:26 16,3 C 78 % 1001,5 hPa 0,0 l/m 19,1 km/h (3 Bft) W 275 0 min 0 W/m 12,5 C 11,6 C 19,1 km/h (3 Bft)
11.08.2008 02:30 16,3 C 78 % 1001,5 hPa 0,0 l/m 19,5 km/h (3 Bft) W 275 0 min 0 W/m 12,5 C 11,5 C 19,5 km/h (3 Bft)
11.08.2008 02:35 16,3 C 78 % 1001,5 hPa 0,0 l/m 22,8 km/h (4 Bft) W 275 0 min 0 W/m 12,5 C 10,8 C 22,8 km/h (4 Bft)
11.08.2008 02:40 16,3 C 78 % 1001,5 hPa 0,0 l/m 20,5 km/h (4 Bft) W 280 0 min 0 W/m 12,5 C 11,3 C 20,5 km/h (4 Bft)
11.08.2008 02:45 16,3 C 78 % 1001,5 hPa 0,0 l/m 23,6 km/h (4 Bft) W 280 0 min 0 W/m 12,5 C 10,6 C 23,6 km/h (4 Bft)
11.08.2008 02:51 16,3 C 78 % 1000,5 hPa 0,0 l/m 21,6 km/h (4 Bft) W 275 0 min 0 W/m 12,5 C 11,1 C 21,6 km/h (4 Bft)
11.08.2008 02:56 16,2 C 79 % 1000,5 hPa 0,0 l/m 15,7 km/h (3 Bft) W 265 0 min 0 W/m 12,6 C 12,4 C 15,7 km/h (3 Bft)
11.08.2008 03:01 16,2 C 79 % 1000,5 hPa 0,0 l/m 21,2 km/h (4 Bft) W 280 0 min 0 W/m 12,6 C 11,0 C 21,2 km/h (4 Bft)
11.08.2008 03:06 16,2 C 80 % 1000,5 hPa 0,0 l/m 25,5 km/h (4 Bft) W 270 0 min 0 W/m 12,7 C 10,1 C 25,5 km/h (4 Bft)
11.08.2008 03:11 16,1 C 80 % 1000,5 hPa 0,0 l/m 20,3 km/h (4 Bft) W 270 0 min 0 W/m 12,6 C 11,1 C 20,3 km/h (4 Bft)
11.08.2008 03:16 16,1 C 80 % 1000,5 hPa 0,0 l/m 18,5 km/h (3 Bft) W 270 0 min 0 W/m 12,6 C 11,5 C 18,5 km/h (3 Bft)
11.08.2008 03:21 16,1 C 80 % 1000,5 hPa 0,0 l/m 19,4 km/h (3 Bft) W 275 0 min 0 W/m 12,6 C 11,3 C 19,4 km/h (3 Bft)
11.08.2008 03:26 16,1 C 80 % 1000,5 hPa 0,0 l/m 19,3 km/h (3 Bft) W 270 0 min 0 W/m 12,6 C 11,3 C 19,3 km/h (3 Bft)
11.08.2008 03:31 16,1 C 80 % 1000,5 hPa 0,0 l/m 26,5 km/h (4 Bft) W 275 0 min 0 W/m 12,6 C 9,8 C 26,5 km/h (4 Bft)
11.08.2008 03:36 16,1 C 81 % 1000,5 hPa 0,0 l/m 16,0 km/h (3 Bft) W 280 0 min 0 W/m 12,8 C 12,2 C 16,0 km/h (3 Bft)
11.08.2008 03:41 16,1 C 81 % 1000,5 hPa 0,0 l/m 23,9 km/h (4 Bft) W 275 0 min 0 W/m 12,8 C 10,3 C 23,9 km/h (4 Bft)
11.08.2008 03:46 16,1 C 81 % 1000,5 hPa 0,0 l/m 17,2 km/h (3 Bft) W 270 0 min 0 W/m 12,8 C 11,9 C 17,2 km/h (3 Bft)
11.08.2008 03:50 16,1 C 81 % 1000,5 hPa 0,0 l/m 22,6 km/h (4 Bft) W 270 0 min 0 W/m 12,8 C 10,6 C 22,6 km/h (4 Bft)
11.08.2008 03:55 16,0 C 82 % 1000,5 hPa 0,0 l/m 23,5 km/h (4 Bft) W 280 0 min 0 W/m 12,9 C 10,3 C 23,5 km/h (4 Bft)
11.08.2008 04:00 16,0 C 82 % 1000,5 hPa 0,0 l/m 18,0 km/h (3 Bft) W-NW 285 0 min 0 W/m 12,9 C 11,5 C 18,0 km/h (3 Bft)
11.08.2008 04:06 16,0 C 82 % 1000,5 hPa 0,0 l/m 22,5 km/h (4 Bft) W 270 0 min 0 W/m 12,9 C 10,5 C 22,5 km/h (4 Bft)
11.08.2008 04:11 16,0 C 82 % 1000,5 hPa 0,0 l/m 24,8 km/h (4 Bft) W 280 0 min 0 W/m 12,9 C 10,0 C 24,8 km/h (4 Bft)
11.08.2008 04:16 16,0 C 82 % 1000,5 hPa 0,0 l/m 22,8 km/h (4 Bft) W 275 0 min 0 W/m 12,9 C 10,4 C 22,8 km/h (4 Bft)
11.08.2008 04:21 16,0 C 83 % 1000,5 hPa 0,0 l/m 24,1 km/h (4 Bft) W 280 0 min 0 W/m 13,1 C 10,1 C 24,1 km/h (4 Bft)
11.08.2008 04:26 16,0 C 83 % 1000,5 hPa 0,0 l/m 20,0 km/h (4 Bft) W 280 0 min 0 W/m 13,1 C 11,0 C 20,0 km/h (4 Bft)
11.08.2008 04:31 16,1 C 83 % 1000,5 hPa 0,0 l/m 21,6 km/h (4 Bft) W 280 0 min 0 W/m 13,2 C 10,8 C 21,6 km/h (4 Bft)
11.08.2008 04:36 16,2 C 83 % 1000,5 hPa 0,0 l/m 23,6 km/h (4 Bft) W 280 0 min 0 W/m 13,3 C 10,5 C 23,6 km/h (4 Bft)
11.08.2008 04:41 16,2 C 83 % 1000,5 hPa 0,0 l/m 26,0 km/h (4 Bft) W 275 0 min 0 W/m 13,3 C 10,0 C 26,0 km/h (4 Bft)
11.08.2008 04:46 16,2 C 83 % 1000,5 hPa 0,0 l/m 20,8 km/h (4 Bft) W 275 0 min 0 W/m 13,3 C 11,1 C 20,8 km/h (4 Bft)
11.08.2008 04:51 16,2 C 83 % 1000,5 hPa 0,0 l/m 19,2 km/h (3 Bft) W 280 0 min 0 W/m 13,3 C 11,5 C 19,2 km/h (3 Bft)
11.08.2008 04:56 16,2 C 83 % 1000,5 hPa 0,0 l/m 23,3 km/h (4 Bft) W 275 0 min 0 W/m 13,3 C 10,6 C 23,3 km/h (4 Bft)
11.08.2008 05:00 16,3 C 83 % 1000,5 hPa 0,0 l/m 19,6 km/h (3 Bft) W 275 0 min 0 W/m 13,4 C 11,5 C 19,6 km/h (3 Bft)
11.08.2008 05:06 16,3 C 83 % 1000,5 hPa 0,0 l/m 21,2 km/h (4 Bft) W 280 0 min 0 W/m 13,4 C 11,2 C 21,2 km/h (4 Bft)
11.08.2008 05:11 16,3 C 83 % 1000,5 hPa 0,0 l/m 24,0 km/h (4 Bft) W 280 0 min 0 W/m 13,4 C 10,6 C 24,0 km/h (4 Bft)
11.08.2008 05:16 16,2 C 83 % 1000,5 hPa 0,0 l/m 19,3 km/h (3 Bft) W 270 0 min 0 W/m 13,3 C 11,5 C 19,3 km/h (3 Bft)
11.08.2008 05:21 16,2 C 83 % 1000,5 hPa 0,0 l/m 22,7 km/h (4 Bft) W-NW 285 0 min 0 W/m 13,3 C 10,7 C 22,7 km/h (4 Bft)
11.08.2008 05:26 16,2 C 84 % 1001,5 hPa 0,0 l/m 24,3 km/h (4 Bft) W-NW 285 0 min 0 W/m 13,5 C 10,4 C 24,3 km/h (4 Bft)
11.08.2008 05:31 16,3 C 84 % 1000,5 hPa 0,0 l/m 26,1 km/h (4 Bft) W 280 0 min 0 W/m 13,6 C 10,2 C 26,1 km/h (4 Bft)
11.08.2008 05:36 16,2 C 83 % 1000,5 hPa 0,0 l/m 24,3 km/h (4 Bft) W 280 0 min 0 W/m 13,3 C 10,4 C 24,3 km/h (4 Bft)
11.08.2008 05:41 16,2 C 84 % 1000,5 hPa 0,0 l/m 21,5 km/h (4 Bft) W 280 0 min 0 W/m 13,5 C 11,0 C 21,5 km/h (4 Bft)
11.08.2008 05:46 16,2 C 84 % 1001,5 hPa 0,0 l/m 23,4 km/h (4 Bft) W 280 0 min 0 W/m 13,5 C 10,5 C 23,4 km/h (4 Bft)
11.08.2008 05:51 16,3 C 84 % 1000,5 hPa 0,0 l/m 23,0 km/h (4 Bft) W 275 0 min 0 W/m 13,6 C 10,8 C 23,0 km/h (4 Bft)
11.08.2008 05:56 16,4 C 84 % 1000,5 hPa 0,0 l/m 25,1 km/h (4 Bft) W 275 0 min 0 W/m 13,7 C 10,5 C 25,1 km/h (4 Bft)
11.08.2008 06:01 16,4 C 83 % 1001,5 hPa 0,0 l/m 22,0 km/h (4 Bft) W 275 0 min 0 W/m 13,5 C 11,1 C 22,0 km/h (4 Bft)
11.08.2008 06:07 16,3 C 84 % 1001,5 hPa 0,0 l/m 29,2 km/h (5 Bft) W-NW 285 0 min 0 W/m 13,6 C 9,6 C 29,2 km/h (5 Bft)
11.08.2008 06:12 16,3 C 84 % 1001,5 hPa 0,0 l/m 27,1 km/h (5 Bft) W-NW 285 0 min 0 W/m 13,6 C 10,0 C 27,1 km/h (5 Bft)
11.08.2008 06:17 16,3 C 84 % 1001,5 hPa 0,0 l/m 22,6 km/h (4 Bft) W-NW 285 0 min 0 W/m 13,6 C 10,8 C 22,6 km/h (4 Bft)
11.08.2008 06:22 16,3 C 84 % 1001,5 hPa 0,0 l/m 23,8 km/h (4 Bft) W 280 0 min 0 W/m 13,6 C 10,6 C 23,8 km/h (4 Bft)
11.08.2008 06:27 16,4 C 84 % 1001,5 hPa 0,0 l/m 20,9 km/h (4 Bft) W 275 0 min 0 W/m 13,7 C 11,3 C 20,9 km/h (4 Bft)
11.08.2008 06:32 16,4 C 84 % 1001,5 hPa 0,0 l/m 19,6 km/h (3 Bft) W-NW 285 0 min 0 W/m 13,7 C 11,6 C 19,6 km/h (3 Bft)
11.08.2008 06:37 16,4 C 84 % 1001,5 hPa 0,0 l/m 22,4 km/h (4 Bft) W 275 0 min 0 W/m 13,7 C 11,0 C 22,4 km/h (4 Bft)
11.08.2008 06:42 16,4 C 84 % 1001,5 hPa 0,0 l/m 27,9 km/h (5 Bft) W-NW 285 0 min 0 W/m 13,7 C 10,0 C 27,9 km/h (5 Bft)
11.08.2008 06:47 16,3 C 84 % 1001,5 hPa 0,0 l/m 25,1 km/h (4 Bft) W 270 0 min 0 W/m 13,6 C 10,4 C 25,1 km/h (4 Bft)
11.08.2008 06:52 16,3 C 85 % 1001,5 hPa 0,0 l/m 21,2 km/h (4 Bft) W 275 0 min 0 W/m 13,8 C 11,2 C 21,2 km/h (4 Bft)
11.08.2008 06:56 16,3 C 85 % 1001,5 hPa 0,0 l/m 22,9 km/h (4 Bft) W 275 0 min 0 W/m 13,8 C 10,8 C 22,9 km/h (4 Bft)
11.08.2008 07:01 16,4 C 84 % 1001,5 hPa 0,0 l/m 24,9 km/h (4 Bft) W-NW 285 0 min 0 W/m 13,7 C 10,5 C 24,9 km/h (4 Bft)
11.08.2008 07:07 16,4 C 84 % 1001,5 hPa 0,0 l/m 19,7 km/h (3 Bft) W-NW 285 0 min 0 W/m 13,7 C 11,6 C 19,7 km/h (3 Bft)
11.08.2008 07:12 16,4 C 84 % 1001,5 hPa 0,0 l/m 23,4 km/h (4 Bft) W-NW 285 0 min 0 W/m 13,7 C 10,8 C 23,4 km/h (4 Bft)
11.08.2008 07:17 16,4 C 84 % 1001,5 hPa 0,0 l/m 22,9 km/h (4 Bft) W 280 0 min 0 W/m 13,7 C 10,9 C 22,9 km/h (4 Bft)
11.08.2008 07:22 16,5 C 84 % 1001,5 hPa 0,0 l/m 18,8 km/h (3 Bft) W 280 0 min 0 W/m 13,8 C 12,0 C 18,8 km/h (3 Bft)
11.08.2008 07:27 16,5 C 84 % 1001,5 hPa 0,0 l/m 27,7 km/h (5 Bft) W-NW 285 0 min 0 W/m 13,8 C 10,2 C 27,7 km/h (5 Bft)
11.08.2008 07:32 16,4 C 84 % 1001,5 hPa 0,0 l/m 24,9 km/h (4 Bft) W 280 0 min 0 W/m 13,7 C 10,5 C 24,9 km/h (4 Bft)
11.08.2008 07:37 16,4 C 85 % 1001,5 hPa 0,0 l/m 25,1 km/h (4 Bft) W 280 0 min 0 W/m 13,9 C 10,5 C 25,1 km/h (4 Bft)
11.08.2008 07:42 16,5 C 84 % 1001,5 hPa 0,0 l/m 23,5 km/h (4 Bft) W 270 0 min 0 W/m 13,8 C 10,9 C 23,5 km/h (4 Bft)
11.08.2008 07:47 16,5 C 84 % 1001,5 hPa 0,0 l/m 28,2 km/h (5 Bft) W-NW 285 0 min 0 W/m 13,8 C 10,1 C 28,2 km/h (5 Bft)
11.08.2008 07:52 16,7 C 84 % 1001,5 hPa 0,0 l/m 21,3 km/h (4 Bft) W 280 0 min 0 W/m 14,0 C 11,7 C 21,3 km/h (4 Bft)
11.08.2008 07:56 16,7 C 84 % 1001,5 hPa 0,0 l/m 29,1 km/h (5 Bft) W-NW 285 0 min 0 W/m 14,0 C 10,2 C 29,1 km/h (5 Bft)
11.08.2008 08:01 16,8 C 84 % 1001,5 hPa 0,0 l/m 27,4 km/h (5 Bft) W-NW 285 0 min 0 W/m 14,1 C 10,6 C 27,4 km/h (5 Bft)
11.08.2008 08:07 16,8 C 84 % 1001,5 hPa 0,0 l/m 24,2 km/h (4 Bft) W 275 0 min 0 W/m 14,1 C 11,2 C 24,2 km/h (4 Bft)
11.08.2008 08:12 16,8 C 84 % 1001,5 hPa 0,0 l/m 23,7 km/h (4 Bft) W 280 0 min 0 W/m 14,1 C 11,3 C 23,7 km/h (4 Bft)
11.08.2008 08:17 16,7 C 84 % 1001,5 hPa 0,0 l/m 28,4 km/h (5 Bft) W-NW 285 0 min 0 W/m 14,0 C 10,3 C 28,4 km/h (5 Bft)
11.08.2008 08:22 16,8 C 84 % 1001,5 hPa 0,0 l/m 28,5 km/h (5 Bft) W-NW 285 0 min 0 W/m 14,1 C 10,4 C 28,5 km/h (5 Bft)
11.08.2008 08:27 16,9 C 84 % 1001,5 hPa 0,0 l/m 28,1 km/h (5 Bft) W 280 0 min 0 W/m 14,2 C 10,7 C 28,1 km/h (5 Bft)
11.08.2008 08:32 16,9 C 84 % 1002,5 hPa 0,0 l/m 31,6 km/h (5 Bft) W-NW 285 0 min 0 W/m 14,2 C 10,1 C 31,6 km/h (5 Bft)
11.08.2008 08:37 16,9 C 84 % 1002,5 hPa 0,0 l/m 33,3 km/h (5 Bft) W 270 0 min 0 W/m 14,2 C 9,9 C 33,3 km/h (5 Bft)
11.08.2008 08:42 17,0 C 83 % 1002,5 hPa 0,0 l/m 25,1 km/h (4 Bft) W 275 0 min 0 W/m 14,1 C 11,3 C 25,1 km/h (4 Bft)
11.08.2008 08:47 17,2 C 83 % 1002,5 hPa 0,0 l/m 30,8 km/h (5 Bft) W-NW 285 0 min 0 W/m 14,3 C 10,7 C 30,8 km/h (5 Bft)
11.08.2008 08:52 17,3 C 82 % 1002,5 hPa 0,0 l/m 34,2 km/h (5 Bft) W 280 0 min 0 W/m 14,2 C 10,4 C 34,2 km/h (5 Bft)
11.08.2008 08:56 17,3 C 83 % 1002,5 hPa 0,0 l/m 29,9 km/h (5 Bft) W 280 0 min 0 W/m 14,4 C 10,9 C 29,9 km/h (5 Bft)
11.08.2008 09:01 17,2 C 83 % 1002,5 hPa 0,0 l/m 34,8 km/h (5 Bft) W 275 0 min 0 W/m 14,3 C 10,1 C 34,8 km/h (5 Bft)
11.08.2008 09:07 17,3 C 83 % 1001,5 hPa 0,0 l/m 25,0 km/h (4 Bft) W 275 0 min 0 W/m 14,4 C 11,7 C 25,0 km/h (4 Bft)
11.08.2008 09:12 17,4 C 82 % 1002,5 hPa 0,0 l/m 31,4 km/h (5 Bft) W 280 0 min 0 W/m 14,3 C 10,9 C 31,4 km/h (5 Bft)
11.08.2008 09:17 17,6 C 82 % 1002,5 hPa 0,0 l/m 30,4 km/h (5 Bft) W 280 0 min 0 W/m 14,5 C 11,3 C 30,4 km/h (5 Bft)
11.08.2008 09:22 17,6 C 81 % 1002,5 hPa 0,0 l/m 33,8 km/h (5 Bft) W-NW 285 0 min 0 W/m 14,3 C 10,8 C 33,8 km/h (5 Bft)
11.08.2008 09:27 17,5 C 82 % 1001,5 hPa 0,0 l/m 27,3 km/h (5 Bft) W 275 0 min 0 W/m 14,4 C 11,6 C 27,3 km/h (5 Bft)
11.08.2008 09:32 17,4 C 82 % 1001,5 hPa 0,0 l/m 28,9 km/h (5 Bft) W 275 0 min 0 W/m 14,3 C 11,2 C 28,9 km/h (5 Bft)
11.08.2008 09:37 17,3 C 82 % 1002,5 hPa 0,0 l/m 36,4 km/h (5 Bft) W 280 0 min 0 W/m 14,2 C 10,1 C 36,4 km/h (5 Bft)
11.08.2008 09:42 17,3 C 82 % 1002,5 hPa 0,0 l/m 31,5 km/h (5 Bft) W-NW 285 0 min 0 W/m 14,2 C 10,7 C 31,5 km/h (5 Bft)
11.08.2008 09:47 17,7 C 82 % 1001,5 hPa 0,0 l/m 33,7 km/h (5 Bft) W-NW 285 0 min 0 W/m 14,6 C 11,0 C 33,7 km/h (5 Bft)
11.08.2008 09:51 18,2 C 81 % 1001,5 hPa 0,0 l/m 31,6 km/h (5 Bft) W-NW 290 0 min 0 W/m 14,9 C 12,0 C 31,6 km/h (5 Bft)
11.08.2008 09:56 18,2 C 81 % 1001,5 hPa 0,0 l/m 29,8 km/h (5 Bft) W-NW 285 0 min 0 W/m 14,9 C 12,2 C 29,8 km/h (5 Bft)
11.08.2008 10:01 19,0 C 76 % 1001,5 hPa 0,0 l/m 30,6 km/h (5 Bft) W-NW 285 0 min 0 W/m 14,7 C 13,2 C 30,6 km/h (5 Bft)
11.08.2008 10:07 19,2 C 76 % 1001,5 hPa 0,0 l/m 33,6 km/h (5 Bft) W 280 0 min 0 W/m 14,9 C 13,2 C 33,6 km/h (5 Bft)
11.08.2008 10:12 19,1 C 75 % 1001,5 hPa 0,0 l/m 33,8 km/h (5 Bft) W 275 0 min 0 W/m 14,6 C 13,0 C 33,8 km/h (5 Bft)
11.08.2008 10:17 19,1 C 76 % 1001,5 hPa 0,0 l/m 31,0 km/h (5 Bft) W 280 0 min 0 W/m 14,8 C 13,3 C 31,0 km/h (5 Bft)
11.08.2008 10:22 19,5 C 75 % 1001,5 hPa 0,0 l/m 31,4 km/h (5 Bft) W 280 0 min 0 W/m 14,9 C 13,8 C 31,4 km/h (5 Bft)
11.08.2008 10:27 19,3 C 75 % 1001,5 hPa 0,0 l/m 28,2 km/h (5 Bft) W-NW 285 0 min 0 W/m 14,8 C 14,0 C 28,2 km/h (5 Bft)
11.08.2008 10:32 19,3 C 75 % 1001,5 hPa 0,0 l/m 28,5 km/h (5 Bft) W 280 0 min 0 W/m 14,8 C 13,9 C 28,5 km/h (5 Bft)
11.08.2008 10:37 19,6 C 75 % 1001,5 hPa 0,0 l/m 27,0 km/h (5 Bft) W 280 0 min 0 W/m 15,0 C 14,6 C 27,0 km/h (5 Bft)
11.08.2008 10:42 19,4 C 74 % 1001,5 hPa 0,0 l/m 29,2 km/h (5 Bft) W-NW 290 0 min 0 W/m 14,6 C 14,0 C 29,2 km/h (5 Bft)
11.08.2008 10:47 19,3 C 75 % 1001,5 hPa 0,0 l/m 35,2 km/h (5 Bft) W 275 0 min 0 W/m 14,8 C 13,1 C 35,2 km/h (5 Bft)
11.08.2008 10:51 19,2 C 76 % 1001,5 hPa 0,0 l/m 27,8 km/h (5 Bft) W 280 0 min 0 W/m 14,9 C 13,9 C 27,8 km/h (5 Bft)
11.08.2008 10:56 19,8 C 74 % 1001,5 hPa 0,0 l/m 34,7 km/h (5 Bft) W 280 0 min 0 W/m 15,0 C 13,9 C 34,7 km/h (5 Bft)
11.08.2008 11:02 19,8 C 75 % 1002,5 hPa 0,0 l/m 26,0 km/h (4 Bft) W 275 0 min 0 W/m 15,2 C 15,0 C 26,0 km/h (4 Bft)
11.08.2008 11:07 19,6 C 76 % 1002,5 hPa 0,0 l/m 29,6 km/h (5 Bft) W 275 0 min 0 W/m 15,2 C 14,2 C 29,6 km/h (5 Bft)
11.08.2008 11:12 19,7 C 75 % 1002,5 hPa 0,0 l/m 32,7 km/h (5 Bft) W 280 0 min 0 W/m 15,1 C 14,0 C 32,7 km/h (5 Bft)
11.08.2008 11:17 19,7 C 76 % 1002,5 hPa 0,0 l/m 27,1 km/h (5 Bft) W 275 0 min 0 W/m 15,3 C 14,7 C 27,1 km/h (5 Bft)
11.08.2008 11:22 19,7 C 74 % 1002,5 hPa 0,0 l/m 35,8 km/h (5 Bft) W-NW 285 0 min 0 W/m 14,9 C 13,7 C 35,8 km/h (5 Bft)
11.08.2008 11:27 19,8 C 75 % 1002,5 hPa 0,0 l/m 28,4 km/h (5 Bft) W 280 0 min 0 W/m 15,2 C 14,6 C 28,4 km/h (5 Bft)
11.08.2008 11:32 20,0 C 75 % 1002,5 hPa 0,0 l/m 31,4 km/h (5 Bft) W-NW 285 0 min 0 W/m 15,4 C 14,6 C 31,4 km/h (5 Bft)
11.08.2008 11:37 19,9 C 74 % 1002,5 hPa 0,0 l/m 31,2 km/h (5 Bft) W-NW 285 0 min 0 W/m 15,1 C 14,4 C 31,2 km/h (5 Bft)
11.08.2008 11:42 19,8 C 75 % 1002,5 hPa 0,0 l/m 32,2 km/h (5 Bft) W 275 0 min 0 W/m 15,2 C 14,2 C 32,2 km/h (5 Bft)
11.08.2008 11:46 19,5 C 76 % 1002,5 hPa 0,0 l/m 25,6 km/h (4 Bft) W-NW 285 0 min 0 W/m 15,2 C 14,6 C 25,6 km/h (4 Bft)
11.08.2008 11:51 19,5 C 76 % 1002,5 hPa 0,0 l/m 24,5 km/h (4 Bft) W 280 0 min 0 W/m 15,2 C 14,8 C 24,5 km/h (4 Bft)
11.08.2008 11:56 19,1 C 76 % 1002,5 hPa 0,0 l/m 30,4 km/h (5 Bft) W-NW 285 0 min 0 W/m 14,8 C 13,4 C 30,4 km/h (5 Bft)
11.08.2008 12:02 18,9 C 77 % 1002,5 hPa 0,0 l/m 30,7 km/h (5 Bft) W-NW 285 0 min 0 W/m 14,8 C 13,1 C 30,7 km/h (5 Bft)
11.08.2008 12:07 18,8 C 77 % 1002,5 hPa 0,0 l/m 29,5 km/h (5 Bft) W-NW 290 0 min 0 W/m 14,7 C 13,1 C 29,5 km/h (5 Bft)
11.08.2008 12:12 18,9 C 77 % 1002,5 hPa 0,0 l/m 27,1 km/h (5 Bft) W-NW 285 0 min 0 W/m 14,8 C 13,6 C 27,1 km/h (5 Bft)
11.08.2008 12:17 19,0 C 78 % 1002,5 hPa 0,0 l/m 29,2 km/h (5 Bft) W 280 0 min 0 W/m 15,1 C 13,4 C 29,2 km/h (5 Bft)
11.08.2008 12:21 19,2 C 76 % 1002,5 hPa 0,0 l/m 23,4 km/h (4 Bft) W 275 0 min 0 W/m 14,9 C 14,6 C 23,4 km/h (4 Bft)
11.08.2008 12:26 19,3 C 76 % 1002,5 hPa 0,0 l/m 31,0 km/h (5 Bft) W-NW 290 0 min 0 W/m 15,0 C 13,6 C 31,0 km/h (5 Bft)
11.08.2008 12:32 19,3 C 76 % 1002,5 hPa 0,0 l/m 29,2 km/h (5 Bft) W 270 0 min 0 W/m 15,0 C 13,8 C 29,2 km/h (5 Bft)
11.08.2008 12:37 19,5 C 74 % 1002,5 hPa 0,0 l/m 29,3 km/h (5 Bft) W-NW 285 0 min 0 W/m 14,7 C 14,1 C 29,3 km/h (5 Bft)
11.08.2008 12:42 19,7 C 75 % 1002,5 hPa 0,0 l/m 24,8 km/h (4 Bft) W 275 0 min 0 W/m 15,1 C 15,0 C 24,8 km/h (4 Bft)
11.08.2008 12:47 19,8 C 74 % 1002,5 hPa 0,0 l/m 27,3 km/h (5 Bft) W 275 0 min 0 W/m 15,0 C 14,8 C 27,3 km/h (5 Bft)
11.08.2008 12:52 19,9 C 74 % 1002,5 hPa 0,0 l/m 30,0 km/h (5 Bft) W 275 0 min 0 W/m 15,1 C 14,6 C 30,0 km/h (5 Bft)
11.08.2008 12:56 19,9 C 74 % 1002,5 hPa 0,0 l/m 30,2 km/h (5 Bft) W-NW 285 0 min 0 W/m 15,1 C 14,6 C 30,2 km/h (5 Bft)
11.08.2008 13:01 19,9 C 73 % 1002,5 hPa 0,0 l/m 29,2 km/h (5 Bft) W-NW 285 0 min 0 W/m 14,9 C 14,7 C 29,2 km/h (5 Bft)
11.08.2008 13:07 20,0 C 72 % 1002,5 hPa 0,0 l/m 23,5 km/h (4 Bft) W 280 0 min 0 W/m 14,8 C 15,6 C 23,5 km/h (4 Bft)
11.08.2008 13:12 20,2 C 70 % 1002,5 hPa 0,0 l/m 32,1 km/h (5 Bft) W 280 0 min 0 W/m 14,5 C 14,8 C 32,1 km/h (5 Bft)
11.08.2008 13:17 20,3 C 70 % 1002,5 hPa 0,0 l/m 28,3 km/h (5 Bft) W-NW 285 0 min 0 W/m 14,6 C 15,3 C 28,3 km/h (5 Bft)
11.08.2008 13:22 20,5 C 70 % 1002,5 hPa 0,0 l/m 31,1 km/h (5 Bft) W-NW 285 0 min 0 W/m 14,8 C 15,3 C 31,1 km/h (5 Bft)
11.08.2008 13:27 20,3 C 71 % 1002,5 hPa 0,0 l/m 30,1 km/h (5 Bft) W-NW 290 0 min 0 W/m 14,9 C 15,1 C 30,1 km/h (5 Bft)
11.08.2008 13:32 20,3 C 71 % 1002,5 hPa 0,0 l/m 21,8 km/h (4 Bft) W 280 0 min 0 W/m 14,9 C 16,3 C 21,8 km/h (4 Bft)
11.08.2008 13:37 20,4 C 70 % 1002,5 hPa 0,0 l/m 24,2 km/h (4 Bft) W-NW 285 0 min 0 W/m 14,7 C 16,0 C 24,2 km/h (4 Bft)
11.08.2008 13:41 20,0 C 71 % 1002,5 hPa 0,0 l/m 28,0 km/h (5 Bft) W-NW 290 0 min 0 W/m 14,6 C 15,0 C 28,0 km/h (5 Bft)
11.08.2008 13:46 19,8 C 72 % 1002,5 hPa 0,0 l/m 23,0 km/h (4 Bft) W-NW 285 0 min 0 W/m 14,6 C 15,4 C 23,0 km/h (4 Bft)
11.08.2008 13:52 19,6 C 75 % 1002,5 hPa 0,0 l/m 20,9 km/h (4 Bft) W-NW 285 0 min 0 W/m 15,0 C 15,5 C 20,9 km/h (4 Bft)
11.08.2008 13:57 19,2 C 76 % 1002,5 hPa 0,0 l/m 24,0 km/h (4 Bft) W-NW 285 0 min 0 W/m 14,9 C 14,5 C 24,0 km/h (4 Bft)
11.08.2008 14:02 19,4 C 78 % 1002,5 hPa 0,0 l/m 24,0 km/h (4 Bft) W-NW 285 0 min 0 W/m 15,5 C 14,7 C 24,0 km/h (4 Bft)
11.08.2008 14:07 19,9 C 75 % 1002,5 hPa 0,0 l/m 25,4 km/h (4 Bft) W-NW 285 0 min 0 W/m 15,3 C 15,2 C 25,4 km/h (4 Bft)
11.08.2008 14:12 20,8 C 73 % 1002,5 hPa 0,0 l/m 25,9 km/h (4 Bft) W-NW 285 0 min 0 W/m 15,8 C 16,3 C 25,9 km/h (4 Bft)
11.08.2008 14:17 20,6 C 70 % 1002,5 hPa 0,0 l/m 30,7 km/h (5 Bft) W 275 0 min 0 W/m 14,9 C 15,5 C 30,7 km/h (5 Bft)
11.08.2008 14:22 20,2 C 71 % 1002,5 hPa 0,0 l/m 29,4 km/h (5 Bft) W 280 0 min 0 W/m 14,8 C 15,1 C 29,4 km/h (5 Bft)
11.08.2008 14:26 19,7 C 72 % 1002,5 hPa 0,0 l/m 23,7 km/h (4 Bft) W-NW 285 0 min 0 W/m 14,5 C 15,2 C 23,7 km/h (4 Bft)
11.08.2008 14:31 19,2 C 77 % 1002,5 hPa 0,0 l/m 27,5 km/h (5 Bft) W-NW 285 0 min 0 W/m 15,1 C 13,9 C 27,5 km/h (5 Bft)
11.08.2008 14:36 19,0 C 78 % 1002,5 hPa 0,0 l/m 21,6 km/h (4 Bft) W-NW 285 0 min 0 W/m 15,1 C 14,6 C 21,6 km/h (4 Bft)
11.08.2008 14:42 18,8 C 80 % 1002,5 hPa 0,0 l/m 17,0 km/h (3 Bft) W 280 0 min 0 W/m 15,3 C 15,3 C 17,0 km/h (3 Bft)
11.08.2008 14:47 18,9 C 79 % 1002,5 hPa 0,0 l/m 17,4 km/h (3 Bft) W 280 0 min 0 W/m 15,2 C 15,3 C 17,4 km/h (3 Bft)
11.08.2008 14:52 19,1 C 79 % 1002,5 hPa 0,0 l/m 17,4 km/h (3 Bft) W 280 0 min 0 W/m 15,4 C 15,6 C 17,4 km/h (3 Bft)
11.08.2008 14:57 19,6 C 78 % 1002,5 hPa 0,0 l/m 18,7 km/h (3 Bft) W-NW 285 0 min 0 W/m 15,7 C 15,9 C 18,7 km/h (3 Bft)
11.08.2008 15:02 20,1 C 75 % 1002,5 hPa 0,0 l/m 19,5 km/h (3 Bft) W 280 0 min 0 W/m 15,5 C 16,4 C 19,5 km/h (3 Bft)
11.08.2008 15:07 20,6 C 72 % 1002,5 hPa 0,0 l/m 26,7 km/h (4 Bft) W-NW 290 0 min 0 W/m 15,4 C 16,0 C 26,7 km/h (4 Bft)
11.08.2008 15:12 21,0 C 70 % 1002,5 hPa 0,0 l/m 23,7 km/h (4 Bft) W-NW 285 0 min 0 W/m 15,3 C 16,9 C 23,7 km/h (4 Bft)
11.08.2008 15:16 21,3 C 66 % 1002,5 hPa 0,0 l/m 27,5 km/h (5 Bft) W 280 0 min 0 W/m 14,7 C 16,8 C 27,5 km/h (5 Bft)
11.08.2008 15:21 20,9 C 69 % 1002,5 hPa 0,0 l/m 27,9 km/h (5 Bft) W 280 0 min 0 W/m 15,0 C 16,2 C 27,9 km/h (5 Bft)
11.08.2008 15:27 20,8 C 70 % 1002,5 hPa 0,0 l/m 22,1 km/h (4 Bft) W 280 0 min 0 W/m 15,1 C 16,9 C 22,1 km/h (4 Bft)
11.08.2008 15:32 20,8 C 70 % 1002,5 hPa 0,0 l/m 25,4 km/h (4 Bft) W 280 0 min 0 W/m 15,1 C 16,4 C 25,4 km/h (4 Bft)
11.08.2008 15:37 20,8 C 69 % 1002,5 hPa 0,0 l/m 26,1 km/h (4 Bft) W 280 0 min 0 W/m 14,9 C 16,3 C 26,1 km/h (4 Bft)
11.08.2008 15:42 20,6 C 70 % 1002,5 hPa 0,0 l/m 25,3 km/h (4 Bft) W 280 0 min 0 W/m 14,9 C 16,2 C 25,3 km/h (4 Bft)
11.08.2008 15:47 20,5 C 70 % 1002,5 hPa 0,0 l/m 20,7 km/h (4 Bft) W 270 0 min 0 W/m 14,8 C 16,7 C 20,7 km/h (4 Bft)
11.08.2008 15:52 20,3 C 70 % 1002,5 hPa 0,0 l/m 22,3 km/h (4 Bft) W 275 0 min 0 W/m 14,6 C 16,2 C 22,3 km/h (4 Bft)
11.08.2008 15:57 20,3 C 71 % 1002,5 hPa 0,0 l/m 21,7 km/h (4 Bft) W 280 0 min 0 W/m 14,9 C 16,3 C 21,7 km/h (4 Bft)
11.08.2008 16:02 20,6 C 71 % 1002,5 hPa 0,0 l/m 22,0 km/h (4 Bft) W-NW 285 0 min 0 W/m 15,2 C 16,6 C 22,0 km/h (4 Bft)
11.08.2008 16:06 20,7 C 70 % 1002,5 hPa 0,0 l/m 22,1 km/h (4 Bft) W 270 0 min 0 W/m 15,0 C 16,8 C 22,1 km/h (4 Bft)
11.08.2008 16:12 20,6 C 69 % 1002,5 hPa 0,0 l/m 15,7 km/h (3 Bft) W 275 0 min 0 W/m 14,7 C 17,8 C 15,7 km/h (3 Bft)
11.08.2008 16:17 20,5 C 67 % 1002,5 hPa 0,0 l/m 21,8 km/h (4 Bft) W 280 0 min 0 W/m 14,2 C 16,5 C 21,8 km/h (4 Bft)
11.08.2008 16:22 20,4 C 69 % 1002,5 hPa 0,0 l/m 18,3 km/h (3 Bft) W 280 0 min 0 W/m 14,5 C 17,0 C 18,3 km/h (3 Bft)
11.08.2008 16:27 20,2 C 70 % 1002,5 hPa 0,0 l/m 25,0 km/h (4 Bft) W-NW 285 0 min 0 W/m 14,5 C 15,7 C 25,0 km/h (4 Bft)
11.08.2008 16:32 20,1 C 69 % 1002,5 hPa 0,0 l/m 26,6 km/h (4 Bft) W-NW 285 0 min 0 W/m 14,2 C 15,3 C 26,6 km/h (4 Bft)
11.08.2008 16:37 20,0 C 71 % 1002,5 hPa 0,0 l/m 22,1 km/h (4 Bft) W-NW 285 0 min 0 W/m 14,6 C 15,8 C 22,1 km/h (4 Bft)
11.08.2008 16:42 19,8 C 69 % 1002,5 hPa 0,0 l/m 26,0 km/h (4 Bft) W-NW 290 0 min 0 W/m 13,9 C 15,0 C 26,0 km/h (4 Bft)
11.08.2008 16:47 19,8 C 69 % 1002,5 hPa 0,0 l/m 24,4 km/h (4 Bft) W-NW 285 0 min 0 W/m 13,9 C 15,2 C 24,4 km/h (4 Bft)
11.08.2008 16:52 19,8 C 68 % 1002,5 hPa 0,0 l/m 26,5 km/h (4 Bft) W-NW 285 0 min 0 W/m 13,7 C 14,9 C 26,5 km/h (4 Bft)
11.08.2008 16:57 19,8 C 71 % 1002,5 hPa 0,0 l/m 23,8 km/h (4 Bft) W-NW 295 0 min 0 W/m 14,4 C 15,3 C 23,8 km/h (4 Bft)
11.08.2008 17:01 19,7 C 71 % 1002,5 hPa 0,0 l/m 21,4 km/h (4 Bft) W-NW 290 0 min 0 W/m 14,3 C 15,6 C 21,4 km/h (4 Bft)
11.08.2008 17:07 19,6 C 71 % 1002,5 hPa 0,0 l/m 18,1 km/h (3 Bft) W-NW 285 0 min 0 W/m 14,2 C 16,1 C 18,1 km/h (3 Bft)
11.08.2008 17:12 19,4 C 73 % 1002,5 hPa 0,0 l/m 25,3 km/h (4 Bft) W-NW 285 0 min 0 W/m 14,4 C 14,5 C 25,3 km/h (4 Bft)
11.08.2008 17:17 19,3 C 73 % 1002,5 hPa 0,0 l/m 21,2 km/h (4 Bft) W-NW 295 0 min 0 W/m 14,3 C 15,1 C 21,2 km/h (4 Bft)
11.08.2008 17:22 19,3 C 74 % 1002,5 hPa 0,0 l/m 17,4 km/h (3 Bft) W 275 0 min 0 W/m 14,5 C 15,8 C 17,4 km/h (3 Bft)
11.08.2008 17:27 19,2 C 74 % 1002,5 hPa 0,0 l/m 20,5 km/h (4 Bft) W 280 0 min 0 W/m 14,4 C 15,1 C 20,5 km/h (4 Bft)
11.08.2008 17:32 19,2 C 75 % 1002,5 hPa 0,0 l/m 15,9 km/h (3 Bft) W 270 0 min 0 W/m 14,7 C 16,1 C 15,9 km/h (3 Bft)
11.08.2008 17:37 19,1 C 74 % 1002,5 hPa 0,0 l/m 15,4 km/h (3 Bft) W 270 0 min 0 W/m 14,4 C 16,1 C 15,4 km/h (3 Bft)
11.08.2008 17:42 19,1 C 76 % 1002,5 hPa 0,0 l/m 13,5 km/h (3 Bft) W 280 0 min 0 W/m 14,8 C 16,6 C 13,5 km/h (3 Bft)
11.08.2008 17:46 19,1 C 76 % 1002,5 hPa 0,0 l/m 14,3 km/h (3 Bft) W 275 0 min 0 W/m 14,8 C 16,3 C 14,3 km/h (3 Bft)
11.08.2008 17:51 19,1 C 76 % 1002,5 hPa 0,0 l/m 16,3 km/h (3 Bft) W 280 0 min 0 W/m 14,8 C 15,8 C 16,3 km/h (3 Bft)
11.08.2008 17:56 19,1 C 76 % 1002,5 hPa 0,0 l/m 16,2 km/h (3 Bft) W 280 0 min 0 W/m 14,8 C 15,9 C 16,2 km/h (3 Bft)
11.08.2008 18:02 19,2 C 73 % 1002,5 hPa 0,0 l/m 15,7 km/h (3 Bft) W-NW 285 0 min 0 W/m 14,2 C 16,1 C 15,7 km/h (3 Bft)
11.08.2008 18:07 19,3 C 74 % 1002,5 hPa 0,0 l/m 17,5 km/h (3 Bft) W 275 0 min 0 W/m 14,5 C 15,8 C 17,5 km/h (3 Bft)
11.08.2008 18:12 19,3 C 74 % 1002,5 hPa 0,0 l/m 20,0 km/h (4 Bft) W 280 0 min 0 W/m 14,5 C 15,3 C 20,0 km/h (4 Bft)
11.08.2008 18:17 19,5 C 73 % 1002,5 hPa 0,0 l/m 18,0 km/h (3 Bft) W-NW 285 0 min 0 W/m 14,5 C 16,0 C 18,0 km/h (3 Bft)
11.08.2008 18:22 19,5 C 74 % 1002,5 hPa 0,0 l/m 20,1 km/h (4 Bft) W-NW 285 0 min 0 W/m 14,7 C 15,5 C 20,1 km/h (4 Bft)
11.08.2008 18:27 19,6 C 74 % 1002,5 hPa 0,0 l/m 12,1 km/h (2 Bft) W 270 0 min 0 W/m 14,8 C 17,5 C 12,1 km/h (2 Bft)
11.08.2008 18:32 19,6 C 74 % 1002,5 hPa 0,0 l/m 15,8 km/h (3 Bft) W 280 0 min 0 W/m 14,8 C 16,6 C 15,8 km/h (3 Bft)
11.08.2008 18:36 19,6 C 72 % 1002,5 hPa 0,0 l/m 18,8 km/h (3 Bft) W 275 0 min 0 W/m 14,4 C 15,9 C 18,8 km/h (3 Bft)
11.08.2008 18:41 19,8 C 71 % 1002,5 hPa 0,0 l/m 20,2 km/h (4 Bft) W 275 0 min 0 W/m 14,4 C 15,9 C 20,2 km/h (4 Bft)
11.08.2008 18:47 19,7 C 70 % 1002,5 hPa 0,0 l/m 15,9 km/h (3 Bft) W 280 0 min 0 W/m 14,1 C 16,7 C 15,9 km/h (3 Bft)
11.08.2008 18:52 19,7 C 72 % 1002,5 hPa 0,0 l/m 11,3 km/h (2 Bft) W 275 0 min 0 W/m 14,5 C 17,9 C 11,3 km/h (2 Bft)
11.08.2008 18:57 19,6 C 72 % 1002,5 hPa 0,0 l/m 12,3 km/h (2 Bft) NW 305 0 min 0 W/m 14,4 C 17,5 C 12,3 km/h (2 Bft)
11.08.2008 19:02 19,4 C 71 % 1002,5 hPa 0,0 l/m 9,7 km/h (2 Bft) NW 325 0 min 0 W/m 14,0 C 18,1 C 9,7 km/h (2 Bft)
11.08.2008 19:07 19,2 C 73 % 1002,5 hPa 0,0 l/m 9,9 km/h (2 Bft) N 350 0 min 0 W/m 14,2 C 17,8 C 9,9 km/h (2 Bft)
11.08.2008 19:12 19,1 C 73 % 1002,5 hPa 0,0 l/m 6,4 km/h (2 Bft) NW 315 0 min 0 W/m 14,1 C 19,1 C 6,4 km/h (2 Bft)
11.08.2008 19:17 19,0 C 73 % 1002,5 hPa 0,0 l/m 7,2 km/h (2 Bft) N-NW 330 0 min 0 W/m 14,0 C 18,6 C 7,2 km/h (2 Bft)
11.08.2008 19:21 18,9 C 73 % 1002,5 hPa 0,0 l/m 1,8 km/h (1 Bft) NW 325 0 min 0 W/m 13,9 C 18,9 C 1,8 km/h (1 Bft)
11.08.2008 19:26 18,9 C 74 % 1002,5 hPa 0,0 l/m 3,1 km/h (1 Bft) NW 315 0 min 0 W/m 14,2 C 18,9 C 3,1 km/h (1 Bft)
11.08.2008 19:32 19,0 C 75 % 1002,5 hPa 0,0 l/m 3,0 km/h (1 Bft) NW 320 0 min 0 W/m 14,5 C 19,0 C 3,0 km/h (1 Bft)
11.08.2008 19:37 19,1 C 75 % 1002,5 hPa 0,0 l/m 0,0 km/h (0 Bft) N-NW 345 0 min 0 W/m 14,6 C 19,1 C 0,0 km/h (0 Bft)
11.08.2008 19:42 19,0 C 75 % 1002,5 hPa 0,0 l/m 0,0 km/h (0 Bft) N 350 0 min 0 W/m 14,5 C 19,0 C 0,0 km/h (0 Bft)
11.08.2008 19:47 18,9 C 75 % 1002,5 hPa 0,0 l/m 0,0 km/h (0 Bft) N-NW 345 0 min 0 W/m 14,4 C 18,9 C 0,0 km/h (0 Bft)
11.08.2008 19:52 18,8 C 76 % 1002,5 hPa 0,0 l/m 0,0 km/h (0 Bft) N-NW 345 0 min 0 W/m 14,5 C 18,8 C 0,0 km/h (0 Bft)
11.08.2008 19:57 18,5 C 76 % 1002,5 hPa 0,0 l/m 0,0 km/h (0 Bft) N-NW 345 0 min 0 W/m 14,2 C 18,5 C 0,0 km/h (0 Bft)
11.08.2008 20:02 18,4 C 77 % 1002,5 hPa 0,0 l/m 0,0 km/h (0 Bft) N 350 0 min 0 W/m 14,3 C 18,4 C 0,0 km/h (0 Bft)
11.08.2008 20:06 18,3 C 77 % 1002,5 hPa 0,0 l/m 0,0 km/h (0 Bft) N 350 0 min 0 W/m 14,2 C 18,3 C 0,0 km/h (0 Bft)
11.08.2008 20:12 18,2 C 77 % 1002,5 hPa 0,0 l/m 0,0 km/h (0 Bft) N 350 0 min 0 W/m 14,1 C 18,2 C 0,0 km/h (0 Bft)
11.08.2008 20:17 18,2 C 78 % 1002,5 hPa 0,0 l/m 0,0 km/h (0 Bft) N 350 0 min 0 W/m 14,3 C 18,2 C 0,0 km/h (0 Bft)
11.08.2008 20:22 18,2 C 79 % 1002,5 hPa 0,0 l/m 0,0 km/h (0 Bft) N 350 0 min 0 W/m 14,5 C 18,2 C 0,0 km/h (0 Bft)
11.08.2008 20:27 18,2 C 78 % 1002,5 hPa 0,0 l/m 0,0 km/h (0 Bft) N 350 0 min 0 W/m 14,3 C 18,2 C 0,0 km/h (0 Bft)
11.08.2008 20:32 18,2 C 79 % 1002,5 hPa 0,0 l/m 0,0 km/h (0 Bft) N 350 0 min 0 W/m 14,5 C 18,2 C 0,0 km/h (0 Bft)
11.08.2008 20:37 18,2 C 79 % 1002,5 hPa 0,0 l/m 0,0 km/h (0 Bft) N 350 0 min 0 W/m 14,5 C 18,2 C 0,0 km/h (0 Bft)
11.08.2008 20:42 18,3 C 79 % 1002,5 hPa 0,0 l/m 0,0 km/h (0 Bft) N 350 0 min 0 W/m 14,6 C 18,3 C 0,0 km/h (0 Bft)
11.08.2008 20:47 18,2 C 79 % 1002,5 hPa 0,0 l/m 0,0 km/h (0 Bft) N 350 0 min 0 W/m 14,5 C 18,2 C 0,0 km/h (0 Bft)
11.08.2008 20:51 18,1 C 79 % 1002,5 hPa 0,0 l/m 0,0 km/h (0 Bft) N 350 0 min 0 W/m 14,4 C 18,1 C 0,0 km/h (0 Bft)
11.08.2008 20:56 18,0 C 80 % 1002,5 hPa 0,0 l/m 0,0 km/h (0 Bft) N 350 0 min 0 W/m 14,5 C 18,0 C 0,0 km/h (0 Bft)
11.08.2008 21:02 18,0 C 79 % 1002,5 hPa 0,0 l/m 0,0 km/h (0 Bft) N 350 0 min 0 W/m 14,3 C 18,0 C 0,0 km/h (0 Bft)
11.08.2008 21:07 18,0 C 80 % 1002,5 hPa 0,0 l/m 0,0 km/h (0 Bft) N 350 0 min 0 W/m 14,5 C 18,0 C 0,0 km/h (0 Bft)
11.08.2008 21:12 17,9 C 80 % 1002,5 hPa 0,0 l/m 0,0 km/h (0 Bft) N 350 0 min 0 W/m 14,4 C 17,9 C 0,0 km/h (0 Bft)
11.08.2008 21:17 17,8 C 80 % 1002,5 hPa 0,0 l/m 0,0 km/h (0 Bft) N 350 0 min 0 W/m 14,3 C 17,8 C 0,0 km/h (0 Bft)
11.08.2008 21:22 17,8 C 80 % 1002,5 hPa 0,0 l/m 0,0 km/h (0 Bft) N 350 0 min 0 W/m 14,3 C 17,8 C 0,0 km/h (0 Bft)
11.08.2008 21:27 17,8 C 80 % 1002,5 hPa 0,0 l/m 0,0 km/h (0 Bft) N-NW 345 0 min 0 W/m 14,3 C 17,8 C 0,0 km/h (0 Bft)
11.08.2008 21:31 17,7 C 81 % 1002,5 hPa 0,0 l/m 0,0 km/h (0 Bft) N-NW 345 0 min 0 W/m 14,4 C 17,7 C 0,0 km/h (0 Bft)
11.08.2008 21:36 17,7 C 81 % 1002,5 hPa 0,0 l/m 0,0 km/h (0 Bft) N-NW 345 0 min 0 W/m 14,4 C 17,7 C 0,0 km/h (0 Bft)
11.08.2008 21:42 17,8 C 81 % 1002,5 hPa 0,0 l/m 0,0 km/h (0 Bft) N-NW 345 0 min 0 W/m 14,5 C 17,8 C 0,0 km/h (0 Bft)
11.08.2008 21:47 17,9 C 81 % 1002,5 hPa 0,0 l/m 0,0 km/h (0 Bft) N-NW 345 0 min 0 W/m 14,6 C 17,9 C 0,0 km/h (0 Bft)
11.08.2008 21:52 17,8 C 81 % 1002,5 hPa 0,0 l/m 0,0 km/h (0 Bft) N-NW 345 0 min 0 W/m 14,5 C 17,8 C 0,0 km/h (0 Bft)
11.08.2008 21:57 17,8 C 81 % 1002,5 hPa 0,0 l/m 0,0 km/h (0 Bft) N-NW 345 0 min 0 W/m 14,5 C 17,8 C 0,0 km/h (0 Bft)
11.08.2008 22:02 17,7 C 81 % 1002,5 hPa 0,0 l/m 0,1 km/h (0 Bft) N-NW 345 0 min 0 W/m 14,4 C 17,7 C 0,1 km/h (0 Bft)
11.08.2008 22:07 17,6 C 82 % 1002,5 hPa 0,0 l/m 0,0 km/h (0 Bft) N-NW 345 0 min 0 W/m 14,5 C 17,6 C 0,0 km/h (0 Bft)
11.08.2008 22:11 17,6 C 82 % 1002,5 hPa 0,0 l/m 4,2 km/h (1 Bft) O-SO 105 0 min 0 W/m 14,5 C 17,6 C 4,2 km/h (1 Bft)
11.08.2008 22:17 17,7 C 82 % 1002,5 hPa 0,0 l/m 3,5 km/h (1 Bft) S-SO 155 0 min 0 W/m 14,6 C 17,7 C 3,5 km/h (1 Bft)
11.08.2008 22:22 17,8 C 82 % 1002,5 hPa 0,0 l/m 4,6 km/h (1 Bft) S-SO 165 0 min 0 W/m 14,7 C 17,8 C 4,6 km/h (1 Bft)
11.08.2008 22:27 17,9 C 82 % 1002,5 hPa 0,0 l/m 2,8 km/h (1 Bft) S-SW 195 0 min 0 W/m 14,8 C 17,9 C 2,8 km/h (1 Bft)
11.08.2008 22:32 17,9 C 82 % 1002,5 hPa 0,0 l/m 0,9 km/h (0 Bft) S 180 0 min 0 W/m 14,8 C 17,9 C 0,9 km/h (0 Bft)
11.08.2008 22:37 17,9 C 82 % 1002,5 hPa 0,0 l/m 0,3 km/h (0 Bft) S-SO 160 0 min 0 W/m 14,8 C 17,9 C 0,3 km/h (0 Bft)
11.08.2008 22:42 17,9 C 82 % 1002,5 hPa 0,0 l/m 0,4 km/h (0 Bft) S-SO 165 0 min 0 W/m 14,8 C 17,9 C 0,4 km/h (0 Bft)
11.08.2008 22:47 17,9 C 82 % 1002,5 hPa 0,0 l/m 3,6 km/h (1 Bft) S-SO 160 0 min 0 W/m 14,8 C 17,9 C 3,6 km/h (1 Bft)
11.08.2008 22:52 17,8 C 81 % 1002,5 hPa 0,0 l/m 0,2 km/h (0 Bft) S-SO 160 0 min 0 W/m 14,5 C 17,8 C 0,2 km/h (0 Bft)
11.08.2008 22:57 17,8 C 81 % 1002,5 hPa 0,0 l/m 0,1 km/h (0 Bft) S-SO 160 0 min 0 W/m 14,5 C 17,8 C 0,1 km/h (0 Bft)
11.08.2008 23:01 17,8 C 82 % 1002,5 hPa 0,0 l/m 0,3 km/h (0 Bft) S-SO 160 0 min 0 W/m 14,7 C 17,8 C 0,3 km/h (0 Bft)
11.08.2008 23:07 17,8 C 81 % 1002,5 hPa 0,0 l/m 0,4 km/h (0 Bft) S-SO 160 0 min 0 W/m 14,5 C 17,8 C 0,4 km/h (0 Bft)
11.08.2008 23:12 17,7 C 81 % 1001,5 hPa 0,0 l/m 0,1 km/h (0 Bft) S-SO 160 0 min 0 W/m 14,4 C 17,7 C 0,1 km/h (0 Bft)
11.08.2008 23:17 17,6 C 81 % 1001,5 hPa 0,0 l/m 0,0 km/h (0 Bft) S-SO 160 0 min 0 W/m 14,3 C 17,6 C 0,0 km/h (0 Bft)
11.08.2008 23:22 17,6 C 81 % 1001,5 hPa 0,0 l/m 0,0 km/h (0 Bft) S-SO 160 0 min 0 W/m 14,3 C 17,6 C 0,0 km/h (0 Bft)
11.08.2008 23:27 17,5 C 82 % 1001,5 hPa 0,0 l/m 0,0 km/h (0 Bft) S-SO 160 0 min 0 W/m 14,4 C 17,5 C 0,0 km/h (0 Bft)
11.08.2008 23:32 17,4 C 82 % 1001,5 hPa 0,0 l/m 0,0 km/h (0 Bft) S-SO 160 0 min 0 W/m 14,3 C 17,4 C 0,0 km/h (0 Bft)
11.08.2008 23:36 17,4 C 82 % 1001,5 hPa 0,0 l/m 0,0 km/h (0 Bft) S-SO 160 0 min 0 W/m 14,3 C 17,4 C 0,0 km/h (0 Bft)
11.08.2008 23:41 17,4 C 82 % 1001,5 hPa 0,0 l/m 0,0 km/h (0 Bft) S-SO 160 0 min 0 W/m 14,3 C 17,4 C 0,0 km/h (0 Bft)
11.08.2008 23:47 17,2 C 82 % 1001,5 hPa 0,0 l/m 0,0 km/h (0 Bft) S-SO 160 0 min 0 W/m 14,1 C 17,2 C 0,0 km/h (0 Bft)
11.08.2008 23:52 17,2 C 82 % 1001,5 hPa 0,0 l/m 0,0 km/h (0 Bft) S-SO 160 0 min 0 W/m 14,1 C 17,2 C 0,0 km/h (0 Bft)
11.08.2008 23:57 17,0 C 82 % 1001,5 hPa 0,0 l/m 0,0 km/h (0 Bft) S-SO 160 0 min 0 W/m 13,9 C 17,0 C 0,0 km/h (0 Bft)
_ Min-Zeit 03:55 15:16 02:51 - 19:37 - - - - 01:41 06:07 19:37
Minimum _ 16,0 C 66 % 1000,5 hPa - 0,0 km/h (0 Bft) - - - - 12,3 C 9,6 C 0,0 km/h (0 Bft)
_ Max-Zeit 15:16 06:52 08:32 00:01 09:37 - - 00:01 00:01 14:12 19:12 09:37
Maximum _ 21,3 C 85 % 1002,5 hPa 0,0 l/m 36,4 km/h
W (5 Bft)
- - 0 min 0 W/m 15,8 C 19,1 C 36,4 km/h
W-NW (5 Bft)
Durchschnitt _ 18,1 C 78 % 1001,9 hPa #0,0 l/m 18,6 km/h (3 Bft) W - #0 min. 0 W/m 14,1 C 14,3 C 18,6 km/h (3 Bft)
copyright by Holger Just